sensor_id;sensor_type;location;lat;lon;timestamp;P1;durP1;ratioP1;P2;durP2;ratioP2
40116;SDS011;25829;50.228;18.936;2022-08-19T00:00:36;8.88;;;7.45;;
40116;SDS011;25829;50.228;18.936;2022-08-19T00:03:38;9.05;;;7.45;;
40116;SDS011;25829;50.228;18.936;2022-08-19T00:06:39;10.18;;;8.52;;
40116;SDS011;25829;50.228;18.936;2022-08-19T00:09:42;10.52;;;7.85;;
40116;SDS011;25829;50.228;18.936;2022-08-19T00:12:42;12.05;;;8.43;;
40116;SDS011;25829;50.228;18.936;2022-08-19T00:15:43;9.88;;;7.72;;
40116;SDS011;25829;50.228;18.936;2022-08-19T00:18:44;10.18;;;8.23;;
40116;SDS011;25829;50.228;18.936;2022-08-19T00:21:45;9.75;;;8.27;;
40116;SDS011;25829;50.228;18.936;2022-08-19T00:24:46;10.18;;;8.85;;
40116;SDS011;25829;50.228;18.936;2022-08-19T00:27:47;9.48;;;7.88;;
40116;SDS011;25829;50.228;18.936;2022-08-19T00:30:48;9.82;;;8.23;;
40116;SDS011;25829;50.228;18.936;2022-08-19T00:33:49;9.15;;;8.15;;
40116;SDS011;25829;50.228;18.936;2022-08-19T00:36:50;11.35;;;8.20;;
40116;SDS011;25829;50.228;18.936;2022-08-19T00:39:54;9.30;;;8.15;;
40116;SDS011;25829;50.228;18.936;2022-08-19T00:42:55;12.32;;;8.20;;
40116;SDS011;25829;50.228;18.936;2022-08-19T00:45:56;10.73;;;8.63;;
40116;SDS011;25829;50.228;18.936;2022-08-19T00:48:57;9.13;;;8.32;;
40116;SDS011;25829;50.228;18.936;2022-08-19T00:52:05;11.23;;;8.15;;
40116;SDS011;25829;50.228;18.936;2022-08-19T00:55:09;11.63;;;8.60;;
40116;SDS011;25829;50.228;18.936;2022-08-19T00:58:12;9.13;;;8.07;;
40116;SDS011;25829;50.228;18.936;2022-08-19T01:01:16;10.73;;;8.20;;
40116;SDS011;25829;50.228;18.936;2022-08-19T01:04:17;11.82;;;8.88;;
40116;SDS011;25829;50.228;18.936;2022-08-19T01:07:17;10.40;;;8.50;;
40116;SDS011;25829;50.228;18.936;2022-08-19T01:10:20;9.20;;;8.27;;
40116;SDS011;25829;50.228;18.936;2022-08-19T01:13:24;11.43;;;8.65;;
40116;SDS011;25829;50.228;18.936;2022-08-19T01:16:28;10.30;;;9.30;;
40116;SDS011;25829;50.228;18.936;2022-08-19T01:19:34;10.40;;;8.60;;
40116;SDS011;25829;50.228;18.936;2022-08-19T01:22:40;13.68;;;8.95;;
40116;SDS011;25829;50.228;18.936;2022-08-19T01:25:45;9.50;;;8.50;;
40116;SDS011;25829;50.228;18.936;2022-08-19T01:28:53;9.13;;;8.32;;
40116;SDS011;25829;50.228;18.936;2022-08-19T01:31:55;15.43;;;9.32;;
40116;SDS011;25829;50.228;18.936;2022-08-19T01:34:56;10.40;;;9.30;;
40116;SDS011;25829;50.228;18.936;2022-08-19T01:38:01;9.73;;;8.65;;
40116;SDS011;25829;50.228;18.936;2022-08-19T01:41:08;9.98;;;8.98;;
40116;SDS011;25829;50.228;18.936;2022-08-19T01:44:10;11.00;;;8.57;;
40116;SDS011;25829;50.228;18.936;2022-08-19T01:47:11;10.95;;;9.80;;
40116;SDS011;25829;50.228;18.936;2022-08-19T01:50:12;10.07;;;8.98;;
40116;SDS011;25829;50.228;18.936;2022-08-19T01:53:13;11.15;;;8.57;;
40116;SDS011;25829;50.228;18.936;2022-08-19T01:56:14;9.93;;;8.93;;
40116;SDS011;25829;50.228;18.936;2022-08-19T01:59:16;10.80;;;9.70;;
40116;SDS011;25829;50.228;18.936;2022-08-19T02:02:19;9.60;;;8.60;;
40116;SDS011;25829;50.228;18.936;2022-08-19T02:05:20;10.35;;;9.15;;
40116;SDS011;25829;50.228;18.936;2022-08-19T02:08:21;10.48;;;9.25;;
40116;SDS011;25829;50.228;18.936;2022-08-19T02:11:24;11.10;;;9.90;;
40116;SDS011;25829;50.228;18.936;2022-08-19T02:14:26;12.68;;;9.63;;
40116;SDS011;25829;50.228;18.936;2022-08-19T02:17:27;10.55;;;9.45;;
40116;SDS011;25829;50.228;18.936;2022-08-19T02:20:29;10.02;;;9.02;;
40116;SDS011;25829;50.228;18.936;2022-08-19T02:23:30;12.88;;;9.05;;
40116;SDS011;25829;50.228;18.936;2022-08-19T02:26:32;10.90;;;9.43;;
40116;SDS011;25829;50.228;18.936;2022-08-19T02:29:33;11.85;;;9.10;;
40116;SDS011;25829;50.228;18.936;2022-08-19T02:32:34;10.05;;;9.05;;
40116;SDS011;25829;50.228;18.936;2022-08-19T02:35:34;12.45;;;9.40;;
40116;SDS011;25829;50.228;18.936;2022-08-19T02:38:35;10.57;;;9.43;;
40116;SDS011;25829;50.228;18.936;2022-08-19T02:41:37;11.52;;;9.52;;
40116;SDS011;25829;50.228;18.936;2022-08-19T02:44:38;14.68;;;9.20;;
40116;SDS011;25829;50.228;18.936;2022-08-19T02:47:39;10.15;;;9.07;;
40116;SDS011;25829;50.228;18.936;2022-08-19T02:50:40;11.30;;;9.55;;
40116;SDS011;25829;50.228;18.936;2022-08-19T02:53:40;13.57;;;9.32;;
40116;SDS011;25829;50.228;18.936;2022-08-19T02:56:42;11.88;;;9.50;;
40116;SDS011;25829;50.228;18.936;2022-08-19T02:59:44;12.43;;;10.48;;
40116;SDS011;25829;50.228;18.936;2022-08-19T03:02:45;10.18;;;9.13;;
40116;SDS011;25829;50.228;18.936;2022-08-19T03:05:46;10.43;;;8.85;;
40116;SDS011;25829;50.228;18.936;2022-08-19T03:08:48;11.95;;;9.38;;
40116;SDS011;25829;50.228;18.936;2022-08-19T03:11:52;10.80;;;9.52;;
40116;SDS011;25829;50.228;18.936;2022-08-19T03:14:53;13.32;;;9.95;;
40116;SDS011;25829;50.228;18.936;2022-08-19T03:17:53;10.88;;;9.60;;
40116;SDS011;25829;50.228;18.936;2022-08-19T03:20:54;11.52;;;8.93;;
40116;SDS011;25829;50.228;18.936;2022-08-19T03:23:56;12.48;;;9.35;;
40116;SDS011;25829;50.228;18.936;2022-08-19T03:26:58;11.20;;;9.15;;
40116;SDS011;25829;50.228;18.936;2022-08-19T03:29:59;10.35;;;8.90;;
40116;SDS011;25829;50.228;18.936;2022-08-19T03:33:00;10.20;;;9.20;;
40116;SDS011;25829;50.228;18.936;2022-08-19T03:36:06;11.80;;;9.68;;
40116;SDS011;25829;50.228;18.936;2022-08-19T03:39:09;11.75;;;9.85;;
40116;SDS011;25829;50.228;18.936;2022-08-19T03:42:11;13.30;;;9.73;;
40116;SDS011;25829;50.228;18.936;2022-08-19T03:45:11;10.52;;;9.50;;
40116;SDS011;25829;50.228;18.936;2022-08-19T03:48:12;12.07;;;9.65;;
40116;SDS011;25829;50.228;18.936;2022-08-19T03:51:24;10.82;;;9.73;;
40116;SDS011;25829;50.228;18.936;2022-08-19T03:54:31;14.52;;;9.50;;
40116;SDS011;25829;50.228;18.936;2022-08-19T03:57:32;11.95;;;10.07;;
40116;SDS011;25829;50.228;18.936;2022-08-19T04:00:34;12.30;;;9.45;;
40116;SDS011;25829;50.228;18.936;2022-08-19T04:03:36;11.68;;;9.55;;
40116;SDS011;25829;50.228;18.936;2022-08-19T04:06:38;12.98;;;10.20;;
40116;SDS011;25829;50.228;18.936;2022-08-19T04:09:39;14.00;;;9.90;;
40116;SDS011;25829;50.228;18.936;2022-08-19T04:12:40;12.30;;;10.73;;
40116;SDS011;25829;50.228;18.936;2022-08-19T04:15:41;11.52;;;10.30;;
40116;SDS011;25829;50.228;18.936;2022-08-19T04:18:43;12.60;;;9.32;;
40116;SDS011;25829;50.228;18.936;2022-08-19T04:21:45;11.00;;;9.68;;
40116;SDS011;25829;50.228;18.936;2022-08-19T04:24:47;12.13;;;10.18;;
40116;SDS011;25829;50.228;18.936;2022-08-19T04:27:48;11.00;;;9.70;;
40116;SDS011;25829;50.228;18.936;2022-08-19T04:30:50;12.18;;;9.88;;
40116;SDS011;25829;50.228;18.936;2022-08-19T04:33:52;11.77;;;10.52;;
40116;SDS011;25829;50.228;18.936;2022-08-19T04:36:55;12.80;;;10.13;;
40116;SDS011;25829;50.228;18.936;2022-08-19T04:39:57;13.30;;;10.52;;
40116;SDS011;25829;50.228;18.936;2022-08-19T04:43:16;10.73;;;9.63;;
40116;SDS011;25829;50.228;18.936;2022-08-19T04:46:17;10.98;;;9.75;;
40116;SDS011;25829;50.228;18.936;2022-08-19T04:49:19;11.32;;;9.60;;
40116;SDS011;25829;50.228;18.936;2022-08-19T04:52:22;12.13;;;10.07;;
40116;SDS011;25829;50.228;18.936;2022-08-19T04:55:23;14.05;;;10.40;;
40116;SDS011;25829;50.228;18.936;2022-08-19T04:58:26;13.85;;;10.77;;
40116;SDS011;25829;50.228;18.936;2022-08-19T05:01:27;14.10;;;9.80;;
40116;SDS011;25829;50.228;18.936;2022-08-19T05:04:29;10.52;;;9.43;;
40116;SDS011;25829;50.228;18.936;2022-08-19T05:07:32;13.25;;;9.77;;
40116;SDS011;25829;50.228;18.936;2022-08-19T05:10:41;12.13;;;9.80;;
40116;SDS011;25829;50.228;18.936;2022-08-19T05:13:43;13.95;;;9.93;;
40116;SDS011;25829;50.228;18.936;2022-08-19T05:16:44;10.88;;;9.60;;
40116;SDS011;25829;50.228;18.936;2022-08-19T05:19:45;12.45;;;9.68;;
40116;SDS011;25829;50.228;18.936;2022-08-19T05:23:04;11.95;;;9.70;;
40116;SDS011;25829;50.228;18.936;2022-08-19T05:26:05;14.13;;;9.73;;
40116;SDS011;25829;50.228;18.936;2022-08-19T05:29:07;12.55;;;9.82;;
40116;SDS011;25829;50.228;18.936;2022-08-19T05:32:08;10.55;;;9.15;;
40116;SDS011;25829;50.228;18.936;2022-08-19T05:35:10;12.68;;;9.90;;
40116;SDS011;25829;50.228;18.936;2022-08-19T05:38:12;10.13;;;8.85;;
40116;SDS011;25829;50.228;18.936;2022-08-19T05:41:13;10.55;;;9.48;;
40116;SDS011;25829;50.228;18.936;2022-08-19T05:44:28;10.55;;;8.95;;
40116;SDS011;25829;50.228;18.936;2022-08-19T05:47:31;14.77;;;9.35;;
40116;SDS011;25829;50.228;18.936;2022-08-19T05:50:32;9.40;;;8.30;;
40116;SDS011;25829;50.228;18.936;2022-08-19T05:53:33;13.18;;;8.88;;
40116;SDS011;25829;50.228;18.936;2022-08-19T05:56:35;15.32;;;9.65;;
40116;SDS011;25829;50.228;18.936;2022-08-19T05:59:38;14.73;;;8.82;;
40116;SDS011;25829;50.228;18.936;2022-08-19T06:02:39;11.05;;;9.90;;
40116;SDS011;25829;50.228;18.936;2022-08-19T06:05:46;11.60;;;9.00;;
40116;SDS011;25829;50.228;18.936;2022-08-19T06:08:47;9.43;;;8.45;;
40116;SDS011;25829;50.228;18.936;2022-08-19T06:11:51;10.07;;;8.68;;
40116;SDS011;25829;50.228;18.936;2022-08-19T06:14:54;10.02;;;8.45;;
40116;SDS011;25829;50.228;18.936;2022-08-19T06:17:55;14.63;;;9.18;;
40116;SDS011;25829;50.228;18.936;2022-08-19T06:20:56;10.80;;;8.88;;
40116;SDS011;25829;50.228;18.936;2022-08-19T06:23:57;9.57;;;8.65;;
40116;SDS011;25829;50.228;18.936;2022-08-19T06:26:58;10.93;;;9.20;;
40116;SDS011;25829;50.228;18.936;2022-08-19T06:30:00;9.75;;;8.75;;
40116;SDS011;25829;50.228;18.936;2022-08-19T06:33:02;10.25;;;9.25;;
40116;SDS011;25829;50.228;18.936;2022-08-19T06:36:03;11.75;;;8.77;;
40116;SDS011;25829;50.228;18.936;2022-08-19T06:39:05;11.45;;;8.95;;
40116;SDS011;25829;50.228;18.936;2022-08-19T06:42:08;10.70;;;8.73;;
40116;SDS011;25829;50.228;18.936;2022-08-19T06:45:16;13.10;;;9.10;;
40116;SDS011;25829;50.228;18.936;2022-08-19T06:48:17;15.43;;;9.90;;
40116;SDS011;25829;50.228;18.936;2022-08-19T06:51:18;11.00;;;8.82;;
40116;SDS011;25829;50.228;18.936;2022-08-19T06:54:20;15.13;;;8.65;;
40116;SDS011;25829;50.228;18.936;2022-08-19T06:57:20;10.80;;;8.75;;
40116;SDS011;25829;50.228;18.936;2022-08-19T07:00:21;12.98;;;9.32;;
40116;SDS011;25829;50.228;18.936;2022-08-19T07:03:22;10.35;;;9.23;;
40116;SDS011;25829;50.228;18.936;2022-08-19T07:06:23;9.95;;;8.95;;
40116;SDS011;25829;50.228;18.936;2022-08-19T07:09:25;10.13;;;9.07;;
40116;SDS011;25829;50.228;18.936;2022-08-19T07:12:28;11.60;;;9.27;;
40116;SDS011;25829;50.228;18.936;2022-08-19T07:15:33;13.20;;;9.30;;
40116;SDS011;25829;50.228;18.936;2022-08-19T07:18:34;12.20;;;8.88;;
40116;SDS011;25829;50.228;18.936;2022-08-19T07:21:36;14.38;;;9.82;;
40116;SDS011;25829;50.228;18.936;2022-08-19T07:24:37;13.68;;;8.95;;
40116;SDS011;25829;50.228;18.936;2022-08-19T07:27:38;10.88;;;8.82;;
40116;SDS011;25829;50.228;18.936;2022-08-19T07:30:39;13.85;;;9.23;;
40116;SDS011;25829;50.228;18.936;2022-08-19T07:33:40;14.02;;;9.43;;
40116;SDS011;25829;50.228;18.936;2022-08-19T07:36:43;10.48;;;9.30;;
40116;SDS011;25829;50.228;18.936;2022-08-19T07:39:44;12.73;;;9.75;;
40116;SDS011;25829;50.228;18.936;2022-08-19T07:42:45;12.90;;;9.25;;
40116;SDS011;25829;50.228;18.936;2022-08-19T07:45:46;11.82;;;9.88;;
40116;SDS011;25829;50.228;18.936;2022-08-19T07:48:48;10.88;;;9.02;;
40116;SDS011;25829;50.228;18.936;2022-08-19T07:51:54;12.95;;;10.07;;
40116;SDS011;25829;50.228;18.936;2022-08-19T07:54:57;13.48;;;9.52;;
40116;SDS011;25829;50.228;18.936;2022-08-19T07:58:00;10.32;;;9.15;;
40116;SDS011;25829;50.228;18.936;2022-08-19T08:01:01;11.32;;;9.50;;
40116;SDS011;25829;50.228;18.936;2022-08-19T08:04:02;12.48;;;9.30;;
40116;SDS011;25829;50.228;18.936;2022-08-19T08:07:22;11.40;;;9.27;;
40116;SDS011;25829;50.228;18.936;2022-08-19T08:10:43;13.45;;;9.43;;
40116;SDS011;25829;50.228;18.936;2022-08-19T08:13:44;16.40;;;9.10;;
40116;SDS011;25829;50.228;18.936;2022-08-19T08:16:45;13.00;;;9.20;;
40116;SDS011;25829;50.228;18.936;2022-08-19T08:19:46;12.48;;;8.98;;
40116;SDS011;25829;50.228;18.936;2022-08-19T08:22:48;13.27;;;9.05;;
40116;SDS011;25829;50.228;18.936;2022-08-19T08:26:08;9.80;;;8.80;;
40116;SDS011;25829;50.228;18.936;2022-08-19T08:29:12;11.32;;;8.65;;
40116;SDS011;25829;50.228;18.936;2022-08-19T08:32:15;11.70;;;8.68;;
40116;SDS011;25829;50.228;18.936;2022-08-19T08:35:17;13.27;;;9.43;;
40116;SDS011;25829;50.228;18.936;2022-08-19T08:38:19;12.38;;;9.35;;
40116;SDS011;25829;50.228;18.936;2022-08-19T08:44:59;15.27;;;9.77;;
40116;SDS011;25829;50.228;18.936;2022-08-19T08:48:07;13.50;;;9.65;;
40116;SDS011;25829;50.228;18.936;2022-08-19T08:51:37;11.82;;;9.38;;
40116;SDS011;25829;50.228;18.936;2022-08-19T08:54:43;10.48;;;8.93;;
40116;SDS011;25829;50.228;18.936;2022-08-19T09:00:54;10.93;;;9.02;;
40116;SDS011;25829;50.228;18.936;2022-08-19T09:03:55;13.25;;;8.35;;
40116;SDS011;25829;50.228;18.936;2022-08-19T09:07:10;10.13;;;9.10;;
40116;SDS011;25829;50.228;18.936;2022-08-19T09:10:33;10.10;;;8.55;;
40116;SDS011;25829;50.228;18.936;2022-08-19T09:17:14;12.30;;;9.02;;
40116;SDS011;25829;50.228;18.936;2022-08-19T09:20:19;14.13;;;8.98;;
40116;SDS011;25829;50.228;18.936;2022-08-19T09:23:21;11.27;;;8.90;;
40116;SDS011;25829;50.228;18.936;2022-08-19T09:26:24;15.25;;;9.48;;
40116;SDS011;25829;50.228;18.936;2022-08-19T09:29:25;13.88;;;8.80;;
40116;SDS011;25829;50.228;18.936;2022-08-19T09:32:26;21.90;;;8.65;;
40116;SDS011;25829;50.228;18.936;2022-08-19T09:35:28;10.57;;;9.50;;
40116;SDS011;25829;50.228;18.936;2022-08-19T09:38:30;12.48;;;9.15;;
40116;SDS011;25829;50.228;18.936;2022-08-19T09:41:31;10.48;;;8.52;;
40116;SDS011;25829;50.228;18.936;2022-08-19T09:44:31;14.35;;;9.18;;
40116;SDS011;25829;50.228;18.936;2022-08-19T09:47:33;10.90;;;8.20;;
40116;SDS011;25829;50.228;18.936;2022-08-19T09:50:38;15.50;;;8.80;;
40116;SDS011;25829;50.228;18.936;2022-08-19T09:53:38;14.85;;;8.18;;
40116;SDS011;25829;50.228;18.936;2022-08-19T09:56:39;13.50;;;8.40;;
40116;SDS011;25829;50.228;18.936;2022-08-19T09:59:40;14.23;;;7.63;;
40116;SDS011;25829;50.228;18.936;2022-08-19T10:02:56;10.82;;;7.60;;
40116;SDS011;25829;50.228;18.936;2022-08-19T10:05:58;10.38;;;7.80;;
40116;SDS011;25829;50.228;18.936;2022-08-19T10:09:01;10.07;;;7.75;;
40116;SDS011;25829;50.228;18.936;2022-08-19T10:12:06;9.32;;;7.93;;
40116;SDS011;25829;50.228;18.936;2022-08-19T10:15:13;7.55;;;6.75;;
40116;SDS011;25829;50.228;18.936;2022-08-19T10:18:14;8.40;;;7.43;;
40116;SDS011;25829;50.228;18.936;2022-08-19T10:21:19;13.93;;;6.95;;
40116;SDS011;25829;50.228;18.936;2022-08-19T10:24:24;11.10;;;7.55;;
40116;SDS011;25829;50.228;18.936;2022-08-19T10:27:25;9.43;;;7.13;;
40116;SDS011;25829;50.228;18.936;2022-08-19T10:30:27;9.50;;;7.10;;
40116;SDS011;25829;50.228;18.936;2022-08-19T10:33:27;12.18;;;6.97;;
40116;SDS011;25829;50.228;18.936;2022-08-19T10:36:30;8.82;;;6.90;;
40116;SDS011;25829;50.228;18.936;2022-08-19T10:39:33;10.07;;;6.88;;
40116;SDS011;25829;50.228;18.936;2022-08-19T10:42:35;8.63;;;6.85;;
40116;SDS011;25829;50.228;18.936;2022-08-19T10:45:36;8.25;;;7.35;;
40116;SDS011;25829;50.228;18.936;2022-08-19T10:48:37;10.50;;;6.80;;
40116;SDS011;25829;50.228;18.936;2022-08-19T10:51:38;7.80;;;6.63;;
40116;SDS011;25829;50.228;18.936;2022-08-19T10:54:59;10.60;;;7.07;;
40116;SDS011;25829;50.228;18.936;2022-08-19T10:58:23;9.15;;;6.93;;
40116;SDS011;25829;50.228;18.936;2022-08-19T11:01:26;10.40;;;6.70;;
40116;SDS011;25829;50.228;18.936;2022-08-19T11:04:27;8.23;;;5.82;;
40116;SDS011;25829;50.228;18.936;2022-08-19T11:07:28;7.32;;;6.20;;
40116;SDS011;25829;50.228;18.936;2022-08-19T11:10:29;9.32;;;6.07;;
40116;SDS011;25829;50.228;18.936;2022-08-19T11:13:31;11.02;;;6.50;;
40116;SDS011;25829;50.228;18.936;2022-08-19T11:16:36;8.65;;;6.07;;
40116;SDS011;25829;50.228;18.936;2022-08-19T11:19:39;9.52;;;6.03;;
40116;SDS011;25829;50.228;18.936;2022-08-19T11:22:40;8.07;;;6.10;;
40116;SDS011;25829;50.228;18.936;2022-08-19T11:25:41;9.30;;;6.00;;
40116;SDS011;25829;50.228;18.936;2022-08-19T11:28:42;6.45;;;5.93;;
40116;SDS011;25829;50.228;18.936;2022-08-19T11:31:48;9.18;;;6.28;;
40116;SDS011;25829;50.228;18.936;2022-08-19T11:34:50;9.23;;;5.88;;
40116;SDS011;25829;50.228;18.936;2022-08-19T11:37:50;8.38;;;6.32;;
40116;SDS011;25829;50.228;18.936;2022-08-19T11:40:59;8.23;;;6.25;;
40116;SDS011;25829;50.228;18.936;2022-08-19T11:44:01;10.52;;;6.22;;
40116;SDS011;25829;50.228;18.936;2022-08-19T11:47:03;8.93;;;6.05;;
40116;SDS011;25829;50.228;18.936;2022-08-19T11:50:05;7.15;;;5.60;;
40116;SDS011;25829;50.228;18.936;2022-08-19T12:06:27;7.32;;;5.85;;
40116;SDS011;25829;50.228;18.936;2022-08-19T12:09:38;10.57;;;6.03;;
40116;SDS011;25829;50.228;18.936;2022-08-19T12:12:39;10.48;;;6.30;;
40116;SDS011;25829;50.228;18.936;2022-08-19T12:15:42;7.15;;;5.75;;
40116;SDS011;25829;50.228;18.936;2022-08-19T12:18:45;8.50;;;5.68;;
40116;SDS011;25829;50.228;18.936;2022-08-19T12:21:46;7.00;;;5.45;;
40116;SDS011;25829;50.228;18.936;2022-08-19T12:24:51;8.25;;;6.00;;
40116;SDS011;25829;50.228;18.936;2022-08-19T12:27:53;8.60;;;5.93;;
40116;SDS011;25829;50.228;18.936;2022-08-19T12:30:55;10.15;;;5.72;;
40116;SDS011;25829;50.228;18.936;2022-08-19T12:33:56;7.15;;;5.25;;
40116;SDS011;25829;50.228;18.936;2022-08-19T12:36:58;12.38;;;6.35;;
40116;SDS011;25829;50.228;18.936;2022-08-19T12:40:02;12.32;;;6.03;;
40116;SDS011;25829;50.228;18.936;2022-08-19T12:43:03;6.70;;;5.78;;
40116;SDS011;25829;50.228;18.936;2022-08-19T12:46:04;10.02;;;6.25;;
40116;SDS011;25829;50.228;18.936;2022-08-19T12:49:06;7.47;;;5.30;;
40116;SDS011;25829;50.228;18.936;2022-08-19T12:52:08;7.72;;;5.32;;
40116;SDS011;25829;50.228;18.936;2022-08-19T12:55:12;6.43;;;5.53;;
40116;SDS011;25829;50.228;18.936;2022-08-19T12:58:28;12.45;;;5.35;;
40116;SDS011;25829;50.228;18.936;2022-08-19T13:01:29;8.23;;;5.32;;
40116;SDS011;25829;50.228;18.936;2022-08-19T13:04:33;8.68;;;5.70;;
40116;SDS011;25829;50.228;18.936;2022-08-19T13:07:40;8.35;;;5.38;;
40116;SDS011;25829;50.228;18.936;2022-08-19T13:10:41;13.32;;;6.10;;
40116;SDS011;25829;50.228;18.936;2022-08-19T13:13:42;10.30;;;6.47;;
40116;SDS011;25829;50.228;18.936;2022-08-19T13:16:44;7.68;;;5.38;;
40116;SDS011;25829;50.228;18.936;2022-08-19T13:19:46;7.45;;;5.13;;
40116;SDS011;25829;50.228;18.936;2022-08-19T13:22:47;11.75;;;5.20;;
40116;SDS011;25829;50.228;18.936;2022-08-19T13:26:02;9.93;;;5.30;;
40116;SDS011;25829;50.228;18.936;2022-08-19T13:29:05;9.30;;;5.50;;
40116;SDS011;25829;50.228;18.936;2022-08-19T13:32:25;8.77;;;5.03;;
40116;SDS011;25829;50.228;18.936;2022-08-19T13:35:46;9.93;;;6.30;;
40116;SDS011;25829;50.228;18.936;2022-08-19T13:38:49;7.50;;;5.53;;
40116;SDS011;25829;50.228;18.936;2022-08-19T13:41:49;10.68;;;5.70;;
40116;SDS011;25829;50.228;18.936;2022-08-19T13:44:52;10.43;;;5.43;;
40116;SDS011;25829;50.228;18.936;2022-08-19T13:47:55;11.50;;;5.85;;
40116;SDS011;25829;50.228;18.936;2022-08-19T13:50:57;8.68;;;5.57;;
40116;SDS011;25829;50.228;18.936;2022-08-19T13:53:58;10.25;;;5.57;;
40116;SDS011;25829;50.228;18.936;2022-08-19T13:56:59;9.65;;;5.90;;
40116;SDS011;25829;50.228;18.936;2022-08-19T14:00:00;12.88;;;5.57;;
40116;SDS011;25829;50.228;18.936;2022-08-19T14:03:12;12.30;;;5.85;;
40116;SDS011;25829;50.228;18.936;2022-08-19T14:06:13;7.75;;;5.57;;
40116;SDS011;25829;50.228;18.936;2022-08-19T14:09:14;15.07;;;5.25;;
40116;SDS011;25829;50.228;18.936;2022-08-19T14:12:17;8.60;;;6.15;;
40116;SDS011;25829;50.228;18.936;2022-08-19T14:15:19;9.93;;;6.25;;
40116;SDS011;25829;50.228;18.936;2022-08-19T14:18:20;13.32;;;6.00;;
40116;SDS011;25829;50.228;18.936;2022-08-19T14:21:23;11.77;;;5.88;;
40116;SDS011;25829;50.228;18.936;2022-08-19T14:24:25;10.20;;;5.90;;
40116;SDS011;25829;50.228;18.936;2022-08-19T14:27:26;14.95;;;5.80;;
40116;SDS011;25829;50.228;18.936;2022-08-19T14:30:29;9.23;;;6.03;;
40116;SDS011;25829;50.228;18.936;2022-08-19T14:33:31;10.60;;;6.00;;
40116;SDS011;25829;50.228;18.936;2022-08-19T14:36:32;10.60;;;5.45;;
40116;SDS011;25829;50.228;18.936;2022-08-19T14:39:34;14.07;;;5.47;;
40116;SDS011;25829;50.228;18.936;2022-08-19T14:42:35;10.23;;;5.25;;
40116;SDS011;25829;50.228;18.936;2022-08-19T14:45:37;10.00;;;5.40;;
40116;SDS011;25829;50.228;18.936;2022-08-19T14:48:39;10.45;;;5.90;;
40116;SDS011;25829;50.228;18.936;2022-08-19T14:51:40;8.10;;;5.10;;
40116;SDS011;25829;50.228;18.936;2022-08-19T14:54:41;9.10;;;5.78;;
40116;SDS011;25829;50.228;18.936;2022-08-19T14:57:43;9.30;;;5.22;;
40116;SDS011;25829;50.228;18.936;2022-08-19T15:00:44;16.30;;;6.15;;
40116;SDS011;25829;50.228;18.936;2022-08-19T15:03:45;8.68;;;5.38;;
40116;SDS011;25829;50.228;18.936;2022-08-19T15:06:47;11.88;;;6.22;;
40116;SDS011;25829;50.228;18.936;2022-08-19T15:09:49;12.65;;;5.65;;
40116;SDS011;25829;50.228;18.936;2022-08-19T15:12:51;8.15;;;5.70;;
40116;SDS011;25829;50.228;18.936;2022-08-19T15:15:51;7.32;;;5.95;;
40116;SDS011;25829;50.228;18.936;2022-08-19T15:18:54;11.98;;;6.07;;
40116;SDS011;25829;50.228;18.936;2022-08-19T15:21:57;7.70;;;5.82;;
40116;SDS011;25829;50.228;18.936;2022-08-19T15:24:58;13.73;;;6.28;;
40116;SDS011;25829;50.228;18.936;2022-08-19T15:27:59;10.85;;;6.85;;
40116;SDS011;25829;50.228;18.936;2022-08-19T15:31:00;17.02;;;6.50;;
40116;SDS011;25829;50.228;18.936;2022-08-19T15:34:02;10.57;;;6.30;;
40116;SDS011;25829;50.228;18.936;2022-08-19T15:37:03;14.10;;;6.53;;
40116;SDS011;25829;50.228;18.936;2022-08-19T15:40:05;13.20;;;6.20;;
40116;SDS011;25829;50.228;18.936;2022-08-19T15:43:08;10.50;;;5.65;;
40116;SDS011;25829;50.228;18.936;2022-08-19T15:46:10;10.88;;;6.57;;
40116;SDS011;25829;50.228;18.936;2022-08-19T15:49:12;13.25;;;6.80;;
40116;SDS011;25829;50.228;18.936;2022-08-19T15:52:15;12.10;;;6.78;;
40116;SDS011;25829;50.228;18.936;2022-08-19T15:55:22;11.85;;;6.53;;
40116;SDS011;25829;50.228;18.936;2022-08-19T15:58:25;13.45;;;6.93;;
40116;SDS011;25829;50.228;18.936;2022-08-19T16:01:44;10.30;;;6.70;;
40116;SDS011;25829;50.228;18.936;2022-08-19T16:05:05;10.52;;;6.05;;
40116;SDS011;25829;50.228;18.936;2022-08-19T16:08:26;10.65;;;7.07;;
40116;SDS011;25829;50.228;18.936;2022-08-19T16:11:28;9.90;;;6.57;;
40116;SDS011;25829;50.228;18.936;2022-08-19T16:14:32;13.00;;;6.38;;
40116;SDS011;25829;50.228;18.936;2022-08-19T16:17:34;12.23;;;7.03;;
40116;SDS011;25829;50.228;18.936;2022-08-19T16:20:36;13.48;;;7.28;;
40116;SDS011;25829;50.228;18.936;2022-08-19T16:23:37;8.95;;;6.93;;
40116;SDS011;25829;50.228;18.936;2022-08-19T16:26:38;9.98;;;6.20;;
40116;SDS011;25829;50.228;18.936;2022-08-19T16:29:40;11.00;;;7.15;;
40116;SDS011;25829;50.228;18.936;2022-08-19T16:32:44;9.88;;;6.07;;
40116;SDS011;25829;50.228;18.936;2022-08-19T16:35:44;11.07;;;7.45;;
40116;SDS011;25829;50.228;18.936;2022-08-19T16:38:46;12.68;;;7.18;;
40116;SDS011;25829;50.228;18.936;2022-08-19T16:41:47;12.18;;;7.50;;
40116;SDS011;25829;50.228;18.936;2022-08-19T16:44:48;10.20;;;6.85;;
40116;SDS011;25829;50.228;18.936;2022-08-19T16:47:49;6.57;;;5.95;;
40116;SDS011;25829;50.228;18.936;2022-08-19T16:50:49;7.60;;;6.35;;
40116;SDS011;25829;50.228;18.936;2022-08-19T16:53:50;8.57;;;6.72;;
40116;SDS011;25829;50.228;18.936;2022-08-19T16:56:52;10.90;;;7.32;;
40116;SDS011;25829;50.228;18.936;2022-08-19T16:59:54;11.10;;;7.32;;
40116;SDS011;25829;50.228;18.936;2022-08-19T17:02:55;14.20;;;7.13;;
40116;SDS011;25829;50.228;18.936;2022-08-19T17:05:57;10.60;;;7.07;;
40116;SDS011;25829;50.228;18.936;2022-08-19T17:09:03;14.75;;;7.28;;
40116;SDS011;25829;50.228;18.936;2022-08-19T17:12:05;9.73;;;7.10;;
40116;SDS011;25829;50.228;18.936;2022-08-19T17:15:06;11.02;;;6.38;;
40116;SDS011;25829;50.228;18.936;2022-08-19T17:18:08;9.00;;;6.63;;
40116;SDS011;25829;50.228;18.936;2022-08-19T17:21:10;10.60;;;6.95;;
40116;SDS011;25829;50.228;18.936;2022-08-19T17:24:12;23.50;;;7.97;;
40116;SDS011;25829;50.228;18.936;2022-08-19T17:27:13;17.20;;;8.10;;
40116;SDS011;25829;50.228;18.936;2022-08-19T17:30:13;19.55;;;7.82;;
40116;SDS011;25829;50.228;18.936;2022-08-19T17:33:14;14.32;;;6.18;;
40116;SDS011;25829;50.228;18.936;2022-08-19T17:36:16;10.75;;;6.57;;
40116;SDS011;25829;50.228;18.936;2022-08-19T17:39:18;12.23;;;6.80;;
40116;SDS011;25829;50.228;18.936;2022-08-19T17:42:19;10.48;;;6.57;;
40116;SDS011;25829;50.228;18.936;2022-08-19T17:45:20;12.70;;;6.60;;
40116;SDS011;25829;50.228;18.936;2022-08-19T17:48:21;9.73;;;6.20;;
40116;SDS011;25829;50.228;18.936;2022-08-19T17:51:25;10.13;;;6.22;;
40116;SDS011;25829;50.228;18.936;2022-08-19T17:54:41;11.05;;;5.80;;
40116;SDS011;25829;50.228;18.936;2022-08-19T17:57:42;10.75;;;5.32;;
40116;SDS011;25829;50.228;18.936;2022-08-19T18:00:43;10.38;;;5.47;;
40116;SDS011;25829;50.228;18.936;2022-08-19T18:03:44;9.15;;;5.65;;
40116;SDS011;25829;50.228;18.936;2022-08-19T18:06:45;8.60;;;4.82;;
40116;SDS011;25829;50.228;18.936;2022-08-19T18:09:47;9.00;;;4.72;;
40116;SDS011;25829;50.228;18.936;2022-08-19T18:12:51;5.45;;;3.45;;
40116;SDS011;25829;50.228;18.936;2022-08-19T18:15:52;7.00;;;4.35;;